sensor_id;sensor_type;location;lat;lon;timestamp;P1;durP1;ratioP1;P2;durP2;ratioP2
51654;SDS011;37732;53.106;7.030;2022-09-13T00:01:16;17.45;;;15.68;;
51654;SDS011;37732;53.106;7.030;2022-09-13T00:03:42;18.83;;;16.83;;
51654;SDS011;37732;53.106;7.030;2022-09-13T00:06:08;17.70;;;16.00;;
51654;SDS011;37732;53.106;7.030;2022-09-13T00:08:36;14.63;;;13.13;;
51654;SDS011;37732;53.106;7.030;2022-09-13T00:11:02;18.02;;;16.10;;
51654;SDS011;37732;53.106;7.030;2022-09-13T00:13:28;22.35;;;18.25;;
51654;SDS011;37732;53.106;7.030;2022-09-13T00:15:53;16.17;;;14.45;;
51654;SDS011;37732;53.106;7.030;2022-09-13T00:18:19;22.75;;;16.88;;
51654;SDS011;37732;53.106;7.030;2022-09-13T00:20:45;20.85;;;18.58;;
51654;SDS011;37732;53.106;7.030;2022-09-13T00:23:10;18.52;;;16.52;;
51654;SDS011;37732;53.106;7.030;2022-09-13T00:25:37;16.13;;;14.48;;
51654;SDS011;37732;53.106;7.030;2022-09-13T00:28:03;18.58;;;15.98;;
51654;SDS011;37732;53.106;7.030;2022-09-13T00:30:30;20.05;;;17.40;;
51654;SDS011;37732;53.106;7.030;2022-09-13T00:32:56;19.65;;;17.25;;
51654;SDS011;37732;53.106;7.030;2022-09-13T00:35:21;20.65;;;18.45;;
51654;SDS011;37732;53.106;7.030;2022-09-13T00:37:47;18.85;;;16.92;;
51654;SDS011;37732;53.106;7.030;2022-09-13T00:40:13;19.30;;;16.95;;
51654;SDS011;37732;53.106;7.030;2022-09-13T00:42:39;16.50;;;14.75;;
51654;SDS011;37732;53.106;7.030;2022-09-13T00:53:02;17.83;;;15.85;;
51654;SDS011;37732;53.106;7.030;2022-09-13T00:55:35;16.15;;;14.45;;
51654;SDS011;37732;53.106;7.030;2022-09-13T00:58:07;15.33;;;13.80;;
51654;SDS011;37732;53.106;7.030;2022-09-13T01:00:38;17.83;;;15.75;;
51654;SDS011;37732;53.106;7.030;2022-09-13T01:03:05;16.48;;;14.75;;
51654;SDS011;37732;53.106;7.030;2022-09-13T01:05:35;16.98;;;13.75;;
51654;SDS011;37732;53.106;7.030;2022-09-13T01:08:04;16.10;;;14.40;;
51654;SDS011;37732;53.106;7.030;2022-09-13T01:10:40;15.82;;;13.98;;
51654;SDS011;37732;53.106;7.030;2022-09-13T01:13:10;17.55;;;14.82;;
51654;SDS011;37732;53.106;7.030;2022-09-13T01:15:41;15.88;;;13.85;;
51654;SDS011;37732;53.106;7.030;2022-09-13T01:18:06;15.85;;;14.25;;
51654;SDS011;37732;53.106;7.030;2022-09-13T01:26:23;15.07;;;13.40;;
51654;SDS011;37732;53.106;7.030;2022-09-13T01:29:20;16.65;;;14.90;;
51654;SDS011;37732;53.106;7.030;2022-09-13T01:32:21;14.88;;;13.10;;
51654;SDS011;37732;53.106;7.030;2022-09-13T01:40:53;15.30;;;13.27;;
51654;SDS011;37732;53.106;7.030;2022-09-13T01:43:52;16.83;;;14.55;;
51654;SDS011;37732;53.106;7.030;2022-09-13T01:46:24;15.10;;;12.30;;
51654;SDS011;37732;53.106;7.030;2022-09-13T01:49:16;15.90;;;14.23;;
51654;SDS011;37732;53.106;7.030;2022-09-13T01:52:06;13.00;;;11.60;;
51654;SDS011;37732;53.106;7.030;2022-09-13T01:59:52;12.82;;;11.05;;
51654;SDS011;37732;53.106;7.030;2022-09-13T02:02:31;16.83;;;12.45;;
51654;SDS011;37732;53.106;7.030;2022-09-13T02:05:11;13.50;;;10.45;;
51654;SDS011;37732;53.106;7.030;2022-09-13T02:07:42;12.85;;;10.10;;
51654;SDS011;37732;53.106;7.030;2022-09-13T02:10:25;12.25;;;10.55;;
51654;SDS011;37732;53.106;7.030;2022-09-13T02:13:24;11.85;;;10.65;;
51654;SDS011;37732;53.106;7.030;2022-09-13T02:15:56;13.82;;;11.23;;
51654;SDS011;37732;53.106;7.030;2022-09-13T02:21:03;14.10;;;11.18;;
51654;SDS011;37732;53.106;7.030;2022-09-13T02:23:54;12.57;;;10.90;;
51654;SDS011;37732;53.106;7.030;2022-09-13T02:26:29;15.27;;;11.77;;
51654;SDS011;37732;53.106;7.030;2022-09-13T02:28:57;13.55;;;11.23;;
51654;SDS011;37732;53.106;7.030;2022-09-13T02:31:37;14.45;;;11.50;;
51654;SDS011;37732;53.106;7.030;2022-09-13T02:34:16;11.50;;;10.30;;
51654;SDS011;37732;53.106;7.030;2022-09-13T02:36:45;13.13;;;11.82;;
51654;SDS011;37732;53.106;7.030;2022-09-13T02:39:17;12.05;;;10.38;;
51654;SDS011;37732;53.106;7.030;2022-09-13T02:58:18;14.38;;;12.18;;
51654;SDS011;37732;53.106;7.030;2022-09-13T03:01:04;16.55;;;12.25;;
51654;SDS011;37732;53.106;7.030;2022-09-13T03:03:29;13.77;;;12.35;;
51654;SDS011;37732;53.106;7.030;2022-09-13T03:05:55;13.63;;;11.13;;
51654;SDS011;37732;53.106;7.030;2022-09-13T03:08:21;12.85;;;11.48;;
51654;SDS011;37732;53.106;7.030;2022-09-13T03:16:12;15.40;;;12.07;;
51654;SDS011;37732;53.106;7.030;2022-09-13T03:24:22;18.52;;;14.93;;
51654;SDS011;37732;53.106;7.030;2022-09-13T03:42:27;17.20;;;14.68;;
51654;SDS011;37732;53.106;7.030;2022-09-13T03:45:00;18.75;;;16.00;;
51654;SDS011;37732;53.106;7.030;2022-09-13T03:47:29;19.77;;;16.02;;
51654;SDS011;37732;53.106;7.030;2022-09-13T03:49:58;23.20;;;17.88;;
51654;SDS011;37732;53.106;7.030;2022-09-13T03:52:25;20.83;;;18.40;;
51654;SDS011;37732;53.106;7.030;2022-09-13T03:54:51;23.17;;;18.25;;
51654;SDS011;37732;53.106;7.030;2022-09-13T03:57:21;24.40;;;20.15;;
51654;SDS011;37732;53.106;7.030;2022-09-13T03:59:48;25.95;;;20.35;;
51654;SDS011;37732;53.106;7.030;2022-09-13T04:02:18;25.23;;;21.52;;
51654;SDS011;37732;53.106;7.030;2022-09-13T04:04:45;31.55;;;21.52;;
51654;SDS011;37732;53.106;7.030;2022-09-13T04:07:13;25.88;;;20.67;;
51654;SDS011;37732;53.106;7.030;2022-09-13T04:09:41;23.10;;;19.30;;
51654;SDS011;37732;53.106;7.030;2022-09-13T04:12:07;22.42;;;20.10;;
51654;SDS011;37732;53.106;7.030;2022-09-13T04:14:36;23.83;;;19.80;;
51654;SDS011;37732;53.106;7.030;2022-09-13T04:17:01;16.65;;;14.18;;
51654;SDS011;37732;53.106;7.030;2022-09-13T04:19:27;16.70;;;13.85;;
51654;SDS011;37732;53.106;7.030;2022-09-13T04:21:53;13.25;;;10.60;;
51654;SDS011;37732;53.106;7.030;2022-09-13T04:24:22;12.93;;;10.80;;
51654;SDS011;37732;53.106;7.030;2022-09-13T04:26:50;11.52;;;8.93;;
51654;SDS011;37732;53.106;7.030;2022-09-13T04:29:17;12.15;;;10.80;;
51654;SDS011;37732;53.106;7.030;2022-09-13T04:31:43;9.00;;;7.68;;
51654;SDS011;37732;53.106;7.030;2022-09-13T04:34:09;14.63;;;10.07;;
51654;SDS011;37732;53.106;7.030;2022-09-13T04:36:35;10.48;;;8.35;;
51654;SDS011;37732;53.106;7.030;2022-09-13T04:39:02;14.68;;;9.23;;
51654;SDS011;37732;53.106;7.030;2022-09-13T04:41:27;10.80;;;8.70;;
51654;SDS011;37732;53.106;7.030;2022-09-13T04:43:53;9.10;;;7.55;;
51654;SDS011;37732;53.106;7.030;2022-09-13T04:46:19;12.88;;;9.70;;
51654;SDS011;37732;53.106;7.030;2022-09-13T04:48:48;9.32;;;6.38;;
51654;SDS011;37732;53.106;7.030;2022-09-13T04:51:15;8.05;;;6.00;;
51654;SDS011;37732;53.106;7.030;2022-09-13T04:53:41;9.55;;;6.15;;
51654;SDS011;37732;53.106;7.030;2022-09-13T04:56:08;7.55;;;5.05;;
51654;SDS011;37732;53.106;7.030;2022-09-13T04:58:34;11.68;;;5.60;;
51654;SDS011;37732;53.106;7.030;2022-09-13T05:01:01;8.13;;;4.63;;
51654;SDS011;37732;53.106;7.030;2022-09-13T05:03:31;6.30;;;4.88;;
51654;SDS011;37732;53.106;7.030;2022-09-13T05:06:05;11.48;;;6.13;;
51654;SDS011;37732;53.106;7.030;2022-09-13T05:08:33;8.85;;;6.78;;
51654;SDS011;37732;53.106;7.030;2022-09-13T05:10:59;11.00;;;6.82;;
51654;SDS011;37732;53.106;7.030;2022-09-13T05:13:25;10.30;;;6.15;;
51654;SDS011;37732;53.106;7.030;2022-09-13T05:15:55;9.82;;;7.60;;
51654;SDS011;37732;53.106;7.030;2022-09-13T05:18:22;17.02;;;9.93;;
51654;SDS011;37732;53.106;7.030;2022-09-13T05:20:52;12.05;;;9.23;;
51654;SDS011;37732;53.106;7.030;2022-09-13T05:23:19;14.38;;;8.82;;
51654;SDS011;37732;53.106;7.030;2022-09-13T05:25:45;12.30;;;6.97;;
51654;SDS011;37732;53.106;7.030;2022-09-13T05:28:16;12.82;;;8.45;;
51654;SDS011;37732;53.106;7.030;2022-09-13T05:30:42;11.65;;;7.50;;
51654;SDS011;37732;53.106;7.030;2022-09-13T05:33:08;8.95;;;5.97;;
51654;SDS011;37732;53.106;7.030;2022-09-13T05:35:33;9.73;;;5.97;;
51654;SDS011;37732;53.106;7.030;2022-09-13T05:37:59;9.27;;;6.50;;
51654;SDS011;37732;53.106;7.030;2022-09-13T05:40:25;11.80;;;6.43;;
51654;SDS011;37732;53.106;7.030;2022-09-13T05:42:51;10.32;;;6.50;;
51654;SDS011;37732;53.106;7.030;2022-09-13T05:45:17;11.00;;;5.35;;
51654;SDS011;37732;53.106;7.030;2022-09-13T05:47:42;10.32;;;6.05;;
51654;SDS011;37732;53.106;7.030;2022-09-13T05:50:09;8.18;;;5.35;;
51654;SDS011;37732;53.106;7.030;2022-09-13T05:52:35;8.68;;;5.05;;
51654;SDS011;37732;53.106;7.030;2022-09-13T05:55:01;7.60;;;4.93;;
51654;SDS011;37732;53.106;7.030;2022-09-13T05:57:27;13.68;;;6.28;;
51654;SDS011;37732;53.106;7.030;2022-09-13T05:59:52;6.35;;;4.50;;
51654;SDS011;37732;53.106;7.030;2022-09-13T06:02:18;9.82;;;4.82;;
51654;SDS011;37732;53.106;7.030;2022-09-13T06:04:43;7.90;;;3.40;;
51654;SDS011;37732;53.106;7.030;2022-09-13T06:07:10;6.72;;;3.58;;
51654;SDS011;37732;53.106;7.030;2022-09-13T06:09:36;9.05;;;4.63;;
51654;SDS011;37732;53.106;7.030;2022-09-13T06:12:02;5.97;;;3.70;;
51654;SDS011;37732;53.106;7.030;2022-09-13T06:14:27;8.85;;;4.47;;
51654;SDS011;37732;53.106;7.030;2022-09-13T06:16:53;7.63;;;3.00;;
51654;SDS011;37732;53.106;7.030;2022-09-13T06:19:19;8.93;;;4.30;;
51654;SDS011;37732;53.106;7.030;2022-09-13T06:21:44;6.95;;;3.55;;
51654;SDS011;37732;53.106;7.030;2022-09-13T06:24:10;6.70;;;3.28;;
51654;SDS011;37732;53.106;7.030;2022-09-13T06:26:36;8.45;;;3.60;;
51654;SDS011;37732;53.106;7.030;2022-09-13T06:29:01;5.75;;;3.10;;
51654;SDS011;37732;53.106;7.030;2022-09-13T06:31:27;4.47;;;2.42;;
51654;SDS011;37732;53.106;7.030;2022-09-13T06:33:57;8.60;;;3.08;;
51654;SDS011;37732;53.106;7.030;2022-09-13T06:36:24;5.00;;;2.50;;
51654;SDS011;37732;53.106;7.030;2022-09-13T06:38:50;7.32;;;2.67;;
51654;SDS011;37732;53.106;7.030;2022-09-13T06:41:17;6.32;;;2.45;;
51654;SDS011;37732;53.106;7.030;2022-09-13T06:43:44;6.05;;;2.42;;
51654;SDS011;37732;53.106;7.030;2022-09-13T06:46:11;6.60;;;2.40;;
51654;SDS011;37732;53.106;7.030;2022-09-13T06:48:41;7.93;;;2.40;;
51654;SDS011;37732;53.106;7.030;2022-09-13T06:51:09;6.95;;;2.40;;
51654;SDS011;37732;53.106;7.030;2022-09-13T06:53:37;5.50;;;2.42;;
51654;SDS011;37732;53.106;7.030;2022-09-13T06:56:10;9.10;;;2.85;;
51654;SDS011;37732;53.106;7.030;2022-09-13T06:58:39;8.32;;;2.95;;
51654;SDS011;37732;53.106;7.030;2022-09-13T07:03:41;7.18;;;2.65;;
51654;SDS011;37732;53.106;7.030;2022-09-13T07:06:15;7.82;;;2.70;;
51654;SDS011;37732;53.106;7.030;2022-09-13T07:08:43;8.43;;;2.83;;
51654;SDS011;37732;53.106;7.030;2022-09-13T07:11:10;7.32;;;2.33;;
51654;SDS011;37732;53.106;7.030;2022-09-13T07:13:38;6.60;;;2.40;;
51654;SDS011;37732;53.106;7.030;2022-09-13T07:16:05;7.05;;;2.42;;
51654;SDS011;37732;53.106;7.030;2022-09-13T07:18:32;8.73;;;2.63;;
51654;SDS011;37732;53.106;7.030;2022-09-13T07:20:59;7.40;;;2.03;;
51654;SDS011;37732;53.106;7.030;2022-09-13T07:23:30;7.47;;;2.55;;
51654;SDS011;37732;53.106;7.030;2022-09-13T07:25:57;6.38;;;2.40;;
51654;SDS011;37732;53.106;7.030;2022-09-13T07:28:45;6.88;;;2.17;;
51654;SDS011;37732;53.106;7.030;2022-09-13T07:31:15;8.35;;;2.05;;
51654;SDS011;37732;53.106;7.030;2022-09-13T07:33:45;8.40;;;2.30;;
51654;SDS011;37732;53.106;7.030;2022-09-13T07:36:12;6.15;;;2.35;;
51654;SDS011;37732;53.106;7.030;2022-09-13T07:38:39;7.95;;;2.22;;
51654;SDS011;37732;53.106;7.030;2022-09-13T07:41:10;6.53;;;2.42;;
51654;SDS011;37732;53.106;7.030;2022-09-13T07:43:41;7.53;;;2.30;;
51654;SDS011;37732;53.106;7.030;2022-09-13T07:46:10;6.68;;;1.95;;
51654;SDS011;37732;53.106;7.030;2022-09-13T07:48:40;7.70;;;2.30;;
51654;SDS011;37732;53.106;7.030;2022-09-13T07:51:08;8.75;;;2.85;;
51654;SDS011;37732;53.106;7.030;2022-09-13T07:53:39;7.18;;;2.58;;
51654;SDS011;37732;53.106;7.030;2022-09-13T07:56:16;6.57;;;2.45;;
51654;SDS011;37732;53.106;7.030;2022-09-13T07:58:48;10.07;;;2.40;;
51654;SDS011;37732;53.106;7.030;2022-09-13T08:01:15;6.85;;;2.38;;
51654;SDS011;37732;53.106;7.030;2022-09-13T08:03:58;5.45;;;2.05;;
51654;SDS011;37732;53.106;7.030;2022-09-13T08:06:26;5.97;;;1.70;;
51654;SDS011;37732;53.106;7.030;2022-09-13T08:08:53;6.75;;;1.95;;
51654;SDS011;37732;53.106;7.030;2022-09-13T08:11:19;5.63;;;2.00;;
51654;SDS011;37732;53.106;7.030;2022-09-13T08:13:53;6.78;;;2.20;;
51654;SDS011;37732;53.106;7.030;2022-09-13T08:16:19;7.45;;;2.58;;
51654;SDS011;37732;53.106;7.030;2022-09-13T08:18:47;5.68;;;1.63;;
51654;SDS011;37732;53.106;7.030;2022-09-13T08:21:15;5.60;;;1.92;;
51654;SDS011;37732;53.106;7.030;2022-09-13T08:23:41;5.32;;;1.77;;
51654;SDS011;37732;53.106;7.030;2022-09-13T08:26:07;6.07;;;1.85;;
51654;SDS011;37732;53.106;7.030;2022-09-13T08:28:34;5.95;;;1.35;;
51654;SDS011;37732;53.106;7.030;2022-09-13T08:31:08;5.53;;;1.40;;
51654;SDS011;37732;53.106;7.030;2022-09-13T08:33:35;6.55;;;1.85;;
51654;SDS011;37732;53.106;7.030;2022-09-13T08:36:02;11.50;;;1.45;;
51654;SDS011;37732;53.106;7.030;2022-09-13T08:38:28;5.65;;;1.58;;
51654;SDS011;37732;53.106;7.030;2022-09-13T08:41:02;5.13;;;1.60;;
51654;SDS011;37732;53.106;7.030;2022-09-13T08:43:53;7.72;;;1.67;;
51654;SDS011;37732;53.106;7.030;2022-09-13T08:46:45;7.20;;;1.63;;
51654;SDS011;37732;53.106;7.030;2022-09-13T08:49:13;4.95;;;1.95;;
51654;SDS011;37732;53.106;7.030;2022-09-13T08:51:50;5.15;;;1.73;;
51654;SDS011;37732;53.106;7.030;2022-09-13T08:54:39;3.85;;;1.67;;
51654;SDS011;37732;53.106;7.030;2022-09-13T08:57:22;6.75;;;1.77;;
51654;SDS011;37732;53.106;7.030;2022-09-13T09:05:44;7.18;;;1.63;;
51654;SDS011;37732;53.106;7.030;2022-09-13T09:08:37;5.60;;;1.35;;
51654;SDS011;37732;53.106;7.030;2022-09-13T09:11:24;7.97;;;1.90;;
51654;SDS011;37732;53.106;7.030;2022-09-13T09:14:06;3.42;;;1.40;;
51654;SDS011;37732;53.106;7.030;2022-09-13T09:16:56;5.90;;;1.70;;
51654;SDS011;37732;53.106;7.030;2022-09-13T09:19:28;7.47;;;1.73;;
51654;SDS011;37732;53.106;7.030;2022-09-13T09:22:00;5.03;;;2.10;;
51654;SDS011;37732;53.106;7.030;2022-09-13T09:24:29;6.28;;;1.40;;
51654;SDS011;37732;53.106;7.030;2022-09-13T09:27:00;5.45;;;2.03;;
51654;SDS011;37732;53.106;7.030;2022-09-13T09:29:35;7.13;;;2.50;;
51654;SDS011;37732;53.106;7.030;2022-09-13T09:39:45;7.05;;;1.60;;
51654;SDS011;37732;53.106;7.030;2022-09-13T09:42:13;5.18;;;1.60;;
51654;SDS011;37732;53.106;7.030;2022-09-13T09:44:42;6.40;;;1.75;;
51654;SDS011;37732;53.106;7.030;2022-09-13T09:47:23;5.53;;;1.42;;
51654;SDS011;37732;53.106;7.030;2022-09-13T09:50:00;8.18;;;1.70;;
51654;SDS011;37732;53.106;7.030;2022-09-13T10:00:22;4.78;;;1.33;;
51654;SDS011;37732;53.106;7.030;2022-09-13T10:02:53;6.60;;;2.03;;
51654;SDS011;37732;53.106;7.030;2022-09-13T10:05:22;7.38;;;1.40;;
51654;SDS011;37732;53.106;7.030;2022-09-13T10:08:22;6.70;;;1.52;;
51654;SDS011;37732;53.106;7.030;2022-09-13T10:10:53;8.43;;;2.03;;
51654;SDS011;37732;53.106;7.030;2022-09-13T10:13:21;5.57;;;1.42;;
51654;SDS011;37732;53.106;7.030;2022-09-13T10:15:52;6.90;;;1.88;;
51654;SDS011;37732;53.106;7.030;2022-09-13T10:18:33;6.25;;;1.50;;
51654;SDS011;37732;53.106;7.030;2022-09-13T10:21:22;8.60;;;1.77;;
51654;SDS011;37732;53.106;7.030;2022-09-13T10:23:48;4.35;;;1.50;;
51654;SDS011;37732;53.106;7.030;2022-09-13T10:26:16;5.90;;;1.52;;
51654;SDS011;37732;53.106;7.030;2022-09-13T10:28:59;7.30;;;1.40;;
51654;SDS011;37732;53.106;7.030;2022-09-13T10:31:35;2.53;;;1.20;;
51654;SDS011;37732;53.106;7.030;2022-09-13T10:36:36;5.03;;;1.40;;
51654;SDS011;37732;53.106;7.030;2022-09-13T10:39:07;8.18;;;1.40;;
51654;SDS011;37732;53.106;7.030;2022-09-13T10:41:42;4.95;;;1.40;;
51654;SDS011;37732;53.106;7.030;2022-09-13T10:44:22;6.28;;;1.40;;
51654;SDS011;37732;53.106;7.030;2022-09-13T10:46:48;6.82;;;1.60;;
51654;SDS011;37732;53.106;7.030;2022-09-13T10:52:29;5.60;;;1.50;;
51654;SDS011;37732;53.106;7.030;2022-09-13T10:57:49;7.82;;;1.60;;
51654;SDS011;37732;53.106;7.030;2022-09-13T11:00:20;8.07;;;1.58;;
51654;SDS011;37732;53.106;7.030;2022-09-13T11:02:55;8.93;;;2.33;;
51654;SDS011;37732;53.106;7.030;2022-09-13T11:06:09;7.90;;;2.08;;
51654;SDS011;37732;53.106;7.030;2022-09-13T11:20:03;8.82;;;1.42;;
51654;SDS011;37732;53.106;7.030;2022-09-13T11:25:56;6.07;;;1.70;;
51654;SDS011;37732;53.106;7.030;2022-09-13T11:40:53;4.55;;;1.73;;
51654;SDS011;37732;53.106;7.030;2022-09-13T11:54:27;8.88;;;1.52;;
51654;SDS011;37732;53.106;7.030;2022-09-13T11:57:14;5.03;;;1.30;;
51654;SDS011;37732;53.106;7.030;2022-09-13T12:03:05;3.58;;;1.20;;
51654;SDS011;37732;53.106;7.030;2022-09-13T12:05:44;6.95;;;2.28;;
51654;SDS011;37732;53.106;7.030;2022-09-13T12:08:51;3.90;;;1.50;;
51654;SDS011;37732;53.106;7.030;2022-09-13T12:11:43;5.22;;;1.33;;
51654;SDS011;37732;53.106;7.030;2022-09-13T12:14:18;9.90;;;1.95;;
51654;SDS011;37732;53.106;7.030;2022-09-13T12:16:48;4.50;;;1.67;;
51654;SDS011;37732;53.106;7.030;2022-09-13T12:19:21;4.18;;;1.30;;
51654;SDS011;37732;53.106;7.030;2022-09-13T12:22:09;5.13;;;1.23;;
51654;SDS011;37732;53.106;7.030;2022-09-13T12:24:44;5.93;;;1.60;;
51654;SDS011;37732;53.106;7.030;2022-09-13T12:27:36;3.58;;;1.52;;
51654;SDS011;37732;53.106;7.030;2022-09-13T12:30:15;6.18;;;1.60;;
51654;SDS011;37732;53.106;7.030;2022-09-13T12:32:43;6.88;;;1.83;;
51654;SDS011;37732;53.106;7.030;2022-09-13T13:03:50;6.55;;;1.75;;
51654;SDS011;37732;53.106;7.030;2022-09-13T13:06:33;6.47;;;1.88;;
51654;SDS011;37732;53.106;7.030;2022-09-13T13:09:30;5.43;;;1.85;;
51654;SDS011;37732;53.106;7.030;2022-09-13T13:12:11;6.32;;;1.85;;
51654;SDS011;37732;53.106;7.030;2022-09-13T13:14:55;3.28;;;1.40;;
51654;SDS011;37732;53.106;7.030;2022-09-13T13:23:23;5.05;;;1.77;;
51654;SDS011;37732;53.106;7.030;2022-09-13T13:31:09;5.95;;;2.08;;
51654;SDS011;37732;53.106;7.030;2022-09-13T13:33:48;6.55;;;1.70;;
51654;SDS011;37732;53.106;7.030;2022-09-13T13:36:21;7.47;;;2.10;;
51654;SDS011;37732;53.106;7.030;2022-09-13T13:38:55;7.15;;;2.47;;
51654;SDS011;37732;53.106;7.030;2022-09-13T13:57:24;5.75;;;2.05;;
51654;SDS011;37732;53.106;7.030;2022-09-13T14:00:10;4.72;;;1.70;;
51654;SDS011;37732;53.106;7.030;2022-09-13T14:19:26;4.38;;;1.60;;
51654;SDS011;37732;53.106;7.030;2022-09-13T14:22:27;4.18;;;1.50;;
51654;SDS011;37732;53.106;7.030;2022-09-13T14:24:57;5.18;;;1.60;;
51654;SDS011;37732;53.106;7.030;2022-09-13T14:27:38;8.25;;;2.10;;
51654;SDS011;37732;53.106;7.030;2022-09-13T14:30:18;5.30;;;1.73;;
51654;SDS011;37732;53.106;7.030;2022-09-13T14:32:52;7.75;;;1.90;;
51654;SDS011;37732;53.106;7.030;2022-09-13T14:35:24;7.68;;;2.42;;
51654;SDS011;37732;53.106;7.030;2022-09-13T14:37:55;7.80;;;2.00;;
51654;SDS011;37732;53.106;7.030;2022-09-13T14:40:45;4.30;;;1.45;;
51654;SDS011;37732;53.106;7.030;2022-09-13T14:43:16;9.23;;;1.92;;
51654;SDS011;37732;53.106;7.030;2022-09-13T14:45:45;7.05;;;2.20;;
51654;SDS011;37732;53.106;7.030;2022-09-13T14:51:05;5.72;;;2.00;;
51654;SDS011;37732;53.106;7.030;2022-09-13T14:53:36;7.30;;;1.60;;
51654;SDS011;37732;53.106;7.030;2022-09-13T14:56:07;7.60;;;2.05;;
51654;SDS011;37732;53.106;7.030;2022-09-13T14:58:53;5.20;;;1.80;;
51654;SDS011;37732;53.106;7.030;2022-09-13T15:01:26;7.97;;;2.08;;
51654;SDS011;37732;53.106;7.030;2022-09-13T15:03:58;6.32;;;1.98;;
51654;SDS011;37732;53.106;7.030;2022-09-13T15:06:27;5.75;;;2.40;;
51654;SDS011;37732;53.106;7.030;2022-09-13T15:11:54;5.22;;;1.67;;
51654;SDS011;37732;53.106;7.030;2022-09-13T15:14:29;6.13;;;1.60;;
51654;SDS011;37732;53.106;7.030;2022-09-13T15:17:05;7.43;;;1.92;;
51654;SDS011;37732;53.106;7.030;2022-09-13T15:19:36;4.85;;;1.60;;
51654;SDS011;37732;53.106;7.030;2022-09-13T15:22:13;6.40;;;1.55;;
51654;SDS011;37732;53.106;7.030;2022-09-13T15:24:46;6.38;;;2.10;;
51654;SDS011;37732;53.106;7.030;2022-09-13T15:27:25;6.50;;;1.90;;
51654;SDS011;37732;53.106;7.030;2022-09-13T15:29:58;6.05;;;2.05;;
51654;SDS011;37732;53.106;7.030;2022-09-13T15:32:42;5.82;;;1.55;;
51654;SDS011;37732;53.106;7.030;2022-09-13T15:35:16;6.07;;;1.55;;
51654;SDS011;37732;53.106;7.030;2022-09-13T15:38:01;9.30;;;1.90;;
51654;SDS011;37732;53.106;7.030;2022-09-13T15:40:44;5.82;;;1.80;;
51654;SDS011;37732;53.106;7.030;2022-09-13T15:43:12;4.47;;;1.38;;
51654;SDS011;37732;53.106;7.030;2022-09-13T15:45:37;6.88;;;1.80;;
51654;SDS011;37732;53.106;7.030;2022-09-13T15:48:04;4.43;;;1.48;;
51654;SDS011;37732;53.106;7.030;2022-09-13T15:50:30;7.72;;;1.63;;
51654;SDS011;37732;53.106;7.030;2022-09-13T15:52:57;8.52;;;2.38;;
51654;SDS011;37732;53.106;7.030;2022-09-13T15:55:24;6.93;;;1.65;;
51654;SDS011;37732;53.106;7.030;2022-09-13T15:57:51;5.55;;;1.52;;
51654;SDS011;37732;53.106;7.030;2022-09-13T16:00:21;5.07;;;1.30;;
51654;SDS011;37732;53.106;7.030;2022-09-13T16:02:49;8.80;;;2.20;;
51654;SDS011;37732;53.106;7.030;2022-09-13T16:05:15;7.97;;;1.70;;
51654;SDS011;37732;53.106;7.030;2022-09-13T16:07:41;5.15;;;1.83;;
51654;SDS011;37732;53.106;7.030;2022-09-13T16:10:15;6.22;;;1.60;;
51654;SDS011;37732;53.106;7.030;2022-09-13T16:12:43;4.28;;;1.50;;
51654;SDS011;37732;53.106;7.030;2022-09-13T16:15:09;6.45;;;1.67;;
51654;SDS011;37732;53.106;7.030;2022-09-13T16:17:36;6.00;;;1.88;;
51654;SDS011;37732;53.106;7.030;2022-09-13T16:20:03;4.07;;;1.95;;
51654;SDS011;37732;53.106;7.030;2022-09-13T16:22:31;5.80;;;1.40;;
51654;SDS011;37732;53.106;7.030;2022-09-13T16:24:57;9.15;;;1.83;;
51654;SDS011;37732;53.106;7.030;2022-09-13T16:27:22;3.13;;;1.50;;
51654;SDS011;37732;53.106;7.030;2022-09-13T16:29:50;4.15;;;1.40;;
51654;SDS011;37732;53.106;7.030;2022-09-13T16:32:17;8.18;;;1.70;;
51654;SDS011;37732;53.106;7.030;2022-09-13T16:34:42;6.30;;;1.60;;
51654;SDS011;37732;53.106;7.030;2022-09-13T16:37:09;3.42;;;1.45;;
51654;SDS011;37732;53.106;7.030;2022-09-13T16:39:39;6.03;;;2.10;;
51654;SDS011;37732;53.106;7.030;2022-09-13T16:42:04;7.60;;;1.48;;
51654;SDS011;37732;53.106;7.030;2022-09-13T16:44:30;4.55;;;1.88;;
51654;SDS011;37732;53.106;7.030;2022-09-13T16:46:56;6.32;;;1.60;;
51654;SDS011;37732;53.106;7.030;2022-09-13T16:49:21;3.95;;;1.50;;
51654;SDS011;37732;53.106;7.030;2022-09-13T16:51:48;5.68;;;1.52;;
51654;SDS011;37732;53.106;7.030;2022-09-13T16:54:14;6.05;;;1.80;;
51654;SDS011;37732;53.106;7.030;2022-09-13T16:56:40;3.75;;;1.27;;
51654;SDS011;37732;53.106;7.030;2022-09-13T16:59:06;4.85;;;1.30;;
51654;SDS011;37732;53.106;7.030;2022-09-13T17:01:32;6.40;;;1.65;;
51654;SDS011;37732;53.106;7.030;2022-09-13T17:03:57;4.30;;;1.42;;
51654;SDS011;37732;53.106;7.030;2022-09-13T17:06:24;5.03;;;1.35;;
51654;SDS011;37732;53.106;7.030;2022-09-13T17:08:55;8.20;;;1.50;;
51654;SDS011;37732;53.106;7.030;2022-09-13T17:11:25;3.95;;;1.20;;
51654;SDS011;37732;53.106;7.030;2022-09-13T17:13:52;6.80;;;1.33;;
51654;SDS011;37732;53.106;7.030;2022-09-13T17:16:26;6.47;;;2.03;;
51654;SDS011;37732;53.106;7.030;2022-09-13T17:21:18;8.68;;;2.05;;
51654;SDS011;37732;53.106;7.030;2022-09-13T17:23:44;7.22;;;2.03;;
51654;SDS011;37732;53.106;7.030;2022-09-13T17:26:10;6.20;;;1.95;;
51654;SDS011;37732;53.106;7.030;2022-09-13T17:28:36;8.13;;;1.70;;
51654;SDS011;37732;53.106;7.030;2022-09-13T17:31:02;4.32;;;1.98;;
51654;SDS011;37732;53.106;7.030;2022-09-13T17:33:28;5.85;;;1.98;;
51654;SDS011;37732;53.106;7.030;2022-09-13T17:35:58;6.47;;;1.92;;
51654;SDS011;37732;53.106;7.030;2022-09-13T17:38:24;6.88;;;1.80;;
51654;SDS011;37732;53.106;7.030;2022-09-13T17:41:02;7.80;;;1.65;;
51654;SDS011;37732;53.106;7.030;2022-09-13T17:43:30;7.72;;;1.52;;
51654;SDS011;37732;53.106;7.030;2022-09-13T17:46:01;5.35;;;2.10;;
51654;SDS011;37732;53.106;7.030;2022-09-13T17:48:31;7.45;;;1.65;;
51654;SDS011;37732;53.106;7.030;2022-09-13T17:51:01;5.90;;;1.73;;
51654;SDS011;37732;53.106;7.030;2022-09-13T17:53:38;4.10;;;1.80;;
51654;SDS011;37732;53.106;7.030;2022-09-13T17:56:06;8.40;;;1.75;;
51654;SDS011;37732;53.106;7.030;2022-09-13T17:58:34;5.10;;;1.38;;
51654;SDS011;37732;53.106;7.030;2022-09-13T18:01:04;6.40;;;1.35;;
51654;SDS011;37732;53.106;7.030;2022-09-13T18:03:32;4.88;;;1.52;;
51654;SDS011;37732;53.106;7.030;2022-09-13T18:05:58;5.20;;;1.92;;
51654;SDS011;37732;53.106;7.030;2022-09-13T18:08:26;5.22;;;1.58;;
51654;SDS011;37732;53.106;7.030;2022-09-13T18:10:53;7.82;;;1.50;;
51654;SDS011;37732;53.106;7.030;2022-09-13T18:13:19;5.75;;;1.48;;
51654;SDS011;37732;53.106;7.030;2022-09-13T18:15:55;5.82;;;1.52;;
51654;SDS011;37732;53.106;7.030;2022-09-13T18:18:25;6.35;;;2.30;;
51654;SDS011;37732;53.106;7.030;2022-09-13T18:20:51;4.63;;;1.40;;
51654;SDS011;37732;53.106;7.030;2022-09-13T18:23:17;3.80;;;1.40;;
51654;SDS011;37732;53.106;7.030;2022-09-13T18:25:43;7.95;;;2.00;;
51654;SDS011;37732;53.106;7.030;2022-09-13T18:28:09;9.73;;;2.03;;
51654;SDS011;37732;53.106;7.030;2022-09-13T18:30:35;5.90;;;1.75;;
51654;SDS011;37732;53.106;7.030;2022-09-13T18:33:00;12.90;;;1.73;;
51654;SDS011;37732;53.106;7.030;2022-09-13T18:35:26;4.80;;;1.67;;
51654;SDS011;37732;53.106;7.030;2022-09-13T18:37:52;6.60;;;1.50;;
51654;SDS011;37732;53.106;7.030;2022-09-13T18:40:17;3.38;;;1.70;;
51654;SDS011;37732;53.106;7.030;2022-09-13T18:42:43;4.93;;;1.90;;
51654;SDS011;37732;53.106;7.030;2022-09-13T18:45:09;5.20;;;1.50;;
51654;SDS011;37732;53.106;7.030;2022-09-13T18:47:35;5.40;;;1.48;;
51654;SDS011;37732;53.106;7.030;2022-09-13T18:50:00;8.88;;;1.50;;